Time;durP1;ratioP1;P1;durP2;ratioP2;P2;SDS_P1;SDS_P2;PMS_P1;PMS_P2;Temp;Humidity;BMP_temperature;BMP_pressure;BME280_temperature;BME280_humidity;BME280_pressure;Samples;Min_cycle;Max_cycle;Signal;HPM_P1;HPM_P2
2021/06/21 00:00:59;;;;;;;2.10;2.00;;;23.30;99.90;;;;;;5092426;28;20187;-70
2021/06/21 00:03:25;;;;;;;1.90;1.25;;;23.30;99.90;;;;;;5092378;28;20215;-70
2021/06/21 00:05:51;;;;;;;2.13;1.70;;;23.30;99.90;;;;;;5092464;28;20168;-70
2021/06/21 00:08:17;;;;;;;2.72;1.98;;;23.20;99.90;;;;;;5092271;28;20187;-70
2021/06/21 00:10:43;;;;;;;2.22;2.00;;;23.20;99.90;;;;;;5092551;28;20238;-70
2021/06/21 00:13:10;;;;;;;2.60;2.40;;;23.10;99.90;;;;;;5092207;28;20156;-70
2021/06/21 00:15:36;;;;;;;0.85;0.85;;;23.10;99.90;;;;;;5092216;28;20155;-70
2021/06/21 00:18:03;;;;;;;1.75;1.42;;;23.20;99.90;;;;;;5092131;28;20170;-70
2021/06/21 00:20:29;;;;;;;2.50;2.28;;;23.20;99.90;;;;;;5092145;28;20205;-69
2021/06/21 00:22:56;;;;;;;1.83;1.73;;;23.10;99.90;;;;;;5092002;28;20168;-69
2021/06/21 00:25:23;;;;;;;1.60;1.52;;;23.10;99.90;;;;;;5092040;28;20182;-69
2021/06/21 00:27:50;;;;;;;5.90;1.58;;;23.00;99.90;;;;;;5091961;28;20741;-69
2021/06/21 00:30:17;;;;;;;1.83;1.70;;;23.00;99.90;;;;;;5092091;28;20167;-69
2021/06/21 00:32:45;;;;;;;10.20;2.13;;;22.90;99.90;;;;;;5091880;28;20160;-69
2021/06/21 00:35:13;;;;;;;9.63;2.33;;;22.80;99.90;;;;;;5091850;28;20243;-69
2021/06/21 00:37:39;;;;;;;1.65;1.55;;;22.80;99.90;;;;;;5091777;28;20152;-69
2021/06/21 00:40:09;;;;;;;1.45;1.35;;;22.80;99.90;;;;;;5091577;28;20711;-69
2021/06/21 00:42:36;;;;;;;1.77;1.67;;;22.70;99.90;;;;;;5091469;28;20207;-69
2021/06/21 00:45:03;;;;;;;2.92;2.55;;;22.70;99.90;;;;;;5091140;28;20171;-69
2021/06/21 00:47:29;;;;;;;1.95;1.83;;;22.60;99.90;;;;;;5090938;28;20182;-70
2021/06/21 00:49:55;;;;;;;3.50;2.20;;;22.60;99.90;;;;;;5056619;28;20223;-70
2021/06/21 00:52:22;;;;;;;2.03;1.92;;;22.50;99.90;;;;;;5073375;28;20164;-70
2021/06/21 00:54:59;;;;;;;2.00;1.58;;;22.60;99.90;;;;;;5091352;28;20163;-70
2021/06/21 00:57:36;;;;;;;1.70;1.60;;;22.60;99.90;;;;;;5091408;28;20583;-70
2021/06/21 01:00:23;;;;;;;1.10;1.10;;;22.60;99.90;;;;;;5073229;28;20199;-70
2021/06/21 01:02:50;;;;;;;1.65;1.55;;;22.60;99.90;;;;;;5091313;28;20167;-70
2021/06/21 01:05:22;;;;;;;2.08;1.85;;;22.60;99.90;;;;;;5091255;28;20603;-70
2021/06/21 01:07:48;;;;;;;2.50;1.52;;;22.60;99.90;;;;;;5091399;28;20175;-70
2021/06/21 01:10:17;;;;;;;3.38;2.33;;;22.60;99.90;;;;;;5091168;28;20156;-70
2021/06/21 01:12:46;;;;;;;2.60;2.40;;;22.60;99.90;;;;;;5091225;28;20158;-70
2021/06/21 01:15:23;;;;;;;1.63;1.52;;;22.50;99.90;;;;;;5091212;28;20155;-70
2021/06/21 01:18:02;;;;;;;2.83;2.05;;;22.50;99.90;;;;;;5090662;28;20185;-70
2021/06/21 01:20:41;;;;;;;1.45;1.33;;;22.50;99.90;;;;;;5090843;28;20186;-70
2021/06/21 01:23:44;;;;;;;12.32;3.45;;;22.50;99.90;;;;;;5090981;28;20155;-70
2021/06/21 01:26:18;;;;;;;5.88;1.33;;;22.40;99.90;;;;;;5090858;28;20171;-70
2021/06/21 01:29:02;;;;;;;2.30;2.10;;;22.30;99.90;;;;;;5090723;28;20282;-70
2021/06/21 01:32:02;;;;;;;2.67;2.42;;;22.30;99.90;;;;;;5090716;28;20164;-70
2021/06/21 01:34:29;;;;;;;2.38;1.80;;;22.30;99.90;;;;;;5090811;28;20215;-70
2021/06/21 01:37:00;;;;;;;5.68;2.70;;;22.30;99.90;;;;;;5072720;28;20234;-70
2021/06/21 01:39:29;;;;;;;3.53;1.80;;;22.20;99.90;;;;;;5072518;28;20199;-69
2021/06/21 01:42:01;;;;;;;2.47;2.15;;;22.20;99.90;;;;;;5090326;28;20602;-69
2021/06/21 01:44:32;;;;;;;3.58;2.95;;;22.20;99.90;;;;;;5050435;28;20193;-70
2021/06/21 01:47:00;;;;;;;2.60;2.38;;;22.20;99.90;;;;;;5049037;28;20256;-70
2021/06/21 01:49:34;;;;;;;3.90;2.58;;;22.20;99.90;;;;;;5047908;28;20220;-70
2021/06/21 01:52:03;;;;;;;2.42;2.33;;;22.20;99.90;;;;;;5050239;28;20165;-70
2021/06/21 01:54:31;;;;;;;3.78;2.85;;;22.20;99.90;;;;;;5049268;28;20196;-70
2021/06/21 01:56:58;;;;;;;1.70;1.60;;;22.20;99.90;;;;;;5049692;28;20224;-70
2021/06/21 01:59:27;;;;;;;1.88;1.77;;;22.20;99.90;;;;;;5050134;28;20188;-70
2021/06/21 02:01:57;;;;;;;2.25;2.10;;;22.20;99.90;;;;;;5049654;28;20196;-70
2021/06/21 02:04:25;;;;;;;6.13;2.70;;;22.10;99.90;;;;;;5050110;28;20157;-70
2021/06/21 02:06:53;;;;;;;2.15;1.85;;;22.00;99.90;;;;;;5050004;28;20153;-70
2021/06/21 02:09:24;;;;;;;2.10;1.95;;;21.90;99.90;;;;;;5048662;28;20204;-70
2021/06/21 02:11:53;;;;;;;1.48;1.42;;;21.90;99.90;;;;;;5048990;28;20224;-70
2021/06/21 02:14:25;;;;;;;1.80;1.70;;;21.80;99.90;;;;;;5048579;28;20169;-69
2021/06/21 02:16:52;;;;;;;1.45;1.23;;;21.80;99.90;;;;;;5049812;28;20182;-69
2021/06/21 02:19:20;;;;;;;2.75;2.03;;;21.80;99.90;;;;;;5048559;28;20200;-69
2021/06/21 02:21:48;;;;;;;2.83;2.58;;;21.80;99.90;;;;;;5049429;28;20266;-69
2021/06/21 02:24:15;;;;;;;1.77;1.67;;;21.80;99.90;;;;;;5048173;28;20161;-69
2021/06/21 02:26:44;;;;;;;3.05;2.80;;;21.70;99.90;;;;;;5049637;28;20244;-69
2021/06/21 02:29:11;;;;;;;5.93;3.55;;;21.70;99.90;;;;;;5049563;28;20215;-69
2021/06/21 02:31:38;;;;;;;1.95;1.50;;;21.60;99.90;;;;;;5048304;28;20203;-69
2021/06/21 02:34:04;;;;;;;3.60;2.72;;;21.60;99.90;;;;;;5049257;28;20216;-69
2021/06/21 02:36:30;;;;;;;2.55;2.35;;;21.50;99.90;;;;;;5049775;28;20215;-70
2021/06/21 02:38:58;;;;;;;2.58;2.38;;;21.50;99.90;;;;;;5049406;28;20257;-69
2021/06/21 02:41:25;;;;;;;3.25;2.47;;;21.50;99.90;;;;;;5049300;28;20193;-69
2021/06/21 02:43:51;;;;;;;15.90;3.63;;;21.40;99.90;;;;;;5080152;28;20220;-69
2021/06/21 02:46:17;;;;;;;4.68;2.70;;;21.40;99.90;;;;;;5071263;28;20163;-69
2021/06/21 02:48:43;;;;;;;2.88;2.35;;;21.40;99.90;;;;;;5071168;28;20215;-69
2021/06/21 02:51:15;;;;;;;3.20;2.63;;;21.30;99.90;;;;;;5089097;28;20215;-69
2021/06/21 02:53:49;;;;;;;1.92;1.80;;;21.40;99.90;;;;;;5089158;28;20225;-69
2021/06/21 02:56:52;;;;;;;6.15;2.38;;;21.30;99.90;;;;;;5071353;28;20175;-69
2021/06/21 02:59:21;;;;;;;1.95;1.85;;;21.30;99.90;;;;;;5089081;28;20207;-69
2021/06/21 03:01:55;;;;;;;1.75;1.60;;;21.20;99.90;;;;;;5088905;28;20217;-69
2021/06/21 03:04:22;;;;;;;1.02;1.02;;;21.20;99.90;;;;;;5088995;28;20180;-69
2021/06/21 03:06:50;;;;;;;2.97;2.78;;;21.20;99.90;;;;;;5071306;28;20164;-69
2021/06/21 03:09:19;;;;;;;4.03;2.75;;;21.20;99.90;;;;;;5088340;28;20186;-69
2021/06/21 03:11:49;;;;;;;2.00;1.90;;;21.30;99.90;;;;;;5070953;28;20551;-69
2021/06/21 03:14:20;;;;;;;1.30;1.13;;;21.30;99.90;;;;;;5071000;28;20166;-69
2021/06/21 03:16:47;;;;;;;3.47;3.17;;;21.30;99.90;;;;;;5071073;28;20191;-69
2021/06/21 03:19:13;;;;;;;3.17;2.97;;;21.30;99.90;;;;;;5089061;28;20194;-70
2021/06/21 03:21:43;;;;;;;1.98;1.73;;;21.30;99.90;;;;;;5088949;28;20183;-69
2021/06/21 03:24:13;;;;;;;3.67;3.10;;;21.40;99.90;;;;;;5088902;28;20156;-69
2021/06/21 03:26:40;;;;;;;2.75;2.30;;;21.40;99.90;;;;;;5089168;28;20155;-69
2021/06/21 03:29:25;;;;;;;2.80;2.60;;;21.40;99.90;;;;;;5070808;28;20230;-69
2021/06/21 03:31:53;;;;;;;3.08;2.15;;;21.30;99.90;;;;;;5088952;28;20164;-69
2021/06/21 03:34:21;;;;;;;3.13;2.85;;;21.40;99.90;;;;;;5088863;28;20240;-69
2021/06/21 03:36:49;;;;;;;5.63;2.55;;;21.40;99.90;;;;;;5070853;28;20164;-69
2021/06/21 03:39:15;;;;;;;3.40;3.00;;;21.30;99.90;;;;;;5070667;28;20201;-69
2021/06/21 03:41:41;;;;;;;3.25;2.20;;;21.40;99.90;;;;;;5088717;28;20252;-69
2021/06/21 03:44:07;;;;;;;2.20;2.10;;;21.40;99.90;;;;;;5067094;28;20223;-69
2021/06/21 03:46:34;;;;;;;2.35;1.95;;;21.40;99.90;;;;;;5068631;28;20157;-69
2021/06/21 03:49:00;;;;;;;2.30;2.10;;;21.30;99.90;;;;;;5068357;28;20258;-70
2021/06/21 03:51:26;;;;;;;2.13;2.03;;;21.30;99.90;;;;;;5068556;28;20156;-70
2021/06/21 03:53:53;;;;;;;1.83;1.70;;;21.50;99.90;;;;;;5068465;28;20676;-69
2021/06/21 03:56:19;;;;;;;4.03;2.45;;;21.60;99.90;;;;;;5067212;28;20172;-69
2021/06/21 03:58:48;;;;;;;5.95;2.55;;;21.60;99.90;;;;;;5068345;28;20339;-69
2021/06/21 04:01:14;;;;;;;2.05;1.48;;;21.80;99.90;;;;;;5068160;28;20192;-69
2021/06/21 04:03:39;;;;;;;2.53;2.42;;;22.00;99.90;;;;;;5068371;28;20157;-69
2021/06/21 04:06:05;;;;;;;2.10;1.90;;;22.10;99.90;;;;;;5068624;28;20186;-69
2021/06/21 04:08:31;;;;;;;3.13;1.80;;;22.20;99.90;;;;;;5068265;28;20188;-69
2021/06/21 04:10:57;;;;;;;13.38;4.22;;;22.20;99.90;;;;;;5068377;28;20167;-69
2021/06/21 04:13:23;;;;;;;2.88;2.58;;;22.40;99.90;;;;;;5068391;28;20167;-69
2021/06/21 04:15:49;;;;;;;2.17;2.03;;;22.50;99.90;;;;;;5068292;28;20160;-69
2021/06/21 04:18:17;;;;;;;3.70;2.25;;;22.50;99.90;;;;;;5068145;28;20222;-69
2021/06/21 04:20:45;;;;;;;3.38;2.38;;;22.60;99.90;;;;;;5068420;28;20192;-69
2021/06/21 04:23:13;;;;;;;2.83;2.28;;;23.00;99.90;;;;;;5071668;28;20160;-70
2021/06/21 04:25:39;;;;;;;5.13;3.13;;;23.30;99.90;;;;;;5071902;28;20153;-70
2021/06/21 04:28:06;;;;;;;4.18;2.45;;;23.40;99.90;;;;;;5071742;28;20160;-70
2021/06/21 04:30:32;;;;;;;4.07;3.25;;;23.40;99.90;;;;;;5070395;28;20172;-70
2021/06/21 04:32:58;;;;;;;2.17;2.05;;;23.30;99.90;;;;;;5071671;28;20163;-70
2021/06/21 04:35:26;;;;;;;3.05;1.92;;;23.30;99.90;;;;;;5071565;28;20666;-69
2021/06/21 04:37:54;;;;;;;1.52;1.42;;;23.20;99.90;;;;;;5071452;28;20187;-69
2021/06/21 04:40:23;;;;;;;4.05;3.30;;;23.10;99.90;;;;;;5070020;28;20172;-69
2021/06/21 04:42:49;;;;;;;3.47;2.60;;;23.00;99.90;;;;;;5078368;28;20206;-69
2021/06/21 04:45:15;;;;;;;10.00;4.10;;;23.00;99.90;;;;;;5091224;28;20167;-69
2021/06/21 04:47:41;;;;;;;5.40;2.63;;;23.10;99.90;;;;;;5072451;28;20239;-69
2021/06/21 04:50:10;;;;;;;2.42;2.15;;;22.90;99.90;;;;;;5091292;28;20206;-69
2021/06/21 04:52:38;;;;;;;2.80;2.55;;;22.90;99.90;;;;;;5073076;28;20167;-69
2021/06/21 04:55:06;;;;;;;3.00;2.80;;;22.80;99.90;;;;;;5091105;28;20147;-71
2021/06/21 04:57:33;;;;;;;2.13;2.00;;;22.80;99.90;;;;;;5091196;28;20174;-71
2021/06/21 05:00:00;;;;;;;3.53;3.15;;;22.90;99.90;;;;;;5090965;28;20187;-69
2021/06/21 05:02:26;;;;;;;2.90;2.70;;;23.00;99.90;;;;;;5089858;28;20192;-70
2021/06/21 05:04:52;;;;;;;2.75;1.85;;;23.20;99.90;;;;;;5090854;28;20235;-69
2021/06/21 05:07:18;;;;;;;5.45;3.47;;;23.20;99.90;;;;;;5090937;28;20151;-69
2021/06/21 05:09:47;;;;;;;4.07;3.22;;;23.40;99.90;;;;;;5090733;28;20190;-70
2021/06/21 05:12:13;;;;;;;2.25;1.88;;;23.60;99.90;;;;;;5090695;28;20160;-70
2021/06/21 05:14:39;;;;;;;2.15;2.05;;;23.80;99.90;;;;;;5090685;28;20224;-70
2021/06/21 05:17:07;;;;;;;4.90;2.17;;;24.00;99.90;;;;;;5090503;28;20166;-70
2021/06/21 05:19:34;;;;;;;5.60;3.45;;;24.00;99.90;;;;;;5090783;28;20207;-70
2021/06/21 05:22:01;;;;;;;2.10;1.75;;;23.90;99.90;;;;;;5090680;28;20259;-69
2021/06/21 05:24:26;;;;;;;5.93;3.63;;;23.80;99.90;;;;;;5072246;28;20206;-69
2021/06/21 05:26:52;;;;;;;4.05;3.75;;;24.30;99.90;;;;;;5090710;28;20160;-69
2021/06/21 05:29:18;;;;;;;4.28;2.53;;;24.70;99.90;;;;;;5090376;28;20187;-70
2021/06/21 05:31:44;;;;;;;3.17;2.88;;;25.00;99.90;;;;;;5071979;28;20174;-70
2021/06/21 05:34:10;;;;;;;2.90;2.60;;;25.40;99.90;;;;;;5072330;28;20171;-70
2021/06/21 05:36:36;;;;;;;4.55;3.45;;;25.80;99.90;;;;;;5090455;28;20239;-69
2021/06/21 05:39:03;;;;;;;2.03;1.75;;;26.50;99.90;;;;;;5090223;28;20198;-70
2021/06/21 05:41:29;;;;;;;3.28;2.97;;;26.70;99.90;;;;;;5090087;28;20315;-70
2021/06/21 05:43:55;;;;;;;1.27;0.75;;;27.00;99.90;;;;;;5089909;28;20215;-70
2021/06/21 05:46:21;;;;;;;1.67;1.58;;;26.70;99.90;;;;;;5090277;28;20160;-69
2021/06/21 05:48:47;;;;;;;23.55;3.28;;;26.90;99.90;;;;;;5090001;28;20245;-69
2021/06/21 05:51:12;;;;;;;2.05;1.77;;;27.10;99.90;;;;;;5090091;28;20199;-69
2021/06/21 05:53:38;;;;;;;2.60;2.35;;;26.80;99.90;;;;;;5089992;28;20170;-69
2021/06/21 05:56:04;;;;;;;3.13;2.17;;;27.10;99.90;;;;;;5071985;28;20171;-70
2021/06/21 05:58:30;;;;;;;3.72;1.95;;;27.10;99.90;;;;;;5083686;28;20216;-69
2021/06/21 06:00:56;;;;;;;4.38;2.15;;;27.20;99.90;;;;;;5089047;28;20218;-70
2021/06/21 06:03:22;;;;;;;1.98;1.85;;;27.80;99.90;;;;;;5089305;28;20167;-70
2021/06/21 06:05:48;;;;;;;1.70;1.60;;;27.80;99.90;;;;;;5088939;28;20169;-70
2021/06/21 06:08:15;;;;;;;5.95;3.00;;;27.90;99.90;;;;;;5089594;28;20201;-69
2021/06/21 06:10:41;;;;;;;8.02;2.35;;;27.70;99.90;;;;;;5089651;28;20202;-69
2021/06/21 06:13:08;;;;;;;6.75;2.78;;;28.60;99.90;;;;;;5089578;28;20156;-69
2021/06/21 06:15:34;;;;;;;2.90;2.03;;;28.80;99.90;;;;;;5088902;28;20152;-69
2021/06/21 06:18:00;;;;;;;3.40;3.10;;;29.70;99.90;;;;;;5089233;28;20159;-69
2021/06/21 06:20:27;;;;;;;9.80;4.00;;;30.20;99.90;;;;;;5089288;28;20159;-69
2021/06/21 06:22:53;;;;;;;2.85;2.35;;;30.20;99.90;;;;;;5089163;28;20567;-69
2021/06/21 06:25:19;;;;;;;5.53;2.97;;;30.90;99.90;;;;;;5088489;28;20183;-69
2021/06/21 06:27:46;;;;;;;2.35;2.15;;;31.40;99.90;;;;;;5071238;28;20155;-69
2021/06/21 06:30:13;;;;;;;7.28;3.55;;;31.10;99.90;;;;;;5089171;28;20211;-69
2021/06/21 06:32:40;;;;;;;3.03;1.83;;;31.60;99.90;;;;;;5083903;28;20694;-69
2021/06/21 06:35:07;;;;;;;3.25;2.53;;;31.70;99.90;;;;;;5087869;28;20215;-70
2021/06/21 06:37:35;;;;;;;4.13;3.72;;;31.30;99.90;;;;;;5088329;28;20183;-70
2021/06/21 06:40:01;;;;;;;14.38;3.17;;;31.20;99.90;;;;;;5088988;28;20159;-70
2021/06/21 06:42:27;;;;;;;10.43;3.33;;;32.60;99.90;;;;;;5088789;28;20226;-70
2021/06/21 06:44:52;;;;;;;5.18;2.70;;;33.20;99.90;;;;;;5069577;28;20172;-70
2021/06/21 06:47:19;;;;;;;2.25;2.05;;;33.50;99.90;;;;;;5087564;28;20163;-68
2021/06/21 06:49:45;;;;;;;2.55;1.77;;;33.90;99.90;;;;;;5083042;28;20195;-70
2021/06/21 06:52:13;;;;;;;2.00;1.83;;;33.20;99.90;;;;;;5072256;28;20179;-69
2021/06/21 06:56:57;;;;;;;4.90;2.30;;;33.00;99.90;;;;;;5089096;28;20164;-70
2021/06/21 06:57:30;;;;;;;6.45;3.00;;;32.90;99.90;;;;;;5088362;28;20166;-69
2021/06/21 06:59:56;;;;;;;2.28;2.08;;;32.40;99.90;;;;;;5089083;28;20191;-69
2021/06/21 07:02:22;;;;;;;1.83;1.73;;;32.50;99.90;;;;;;5089095;28;20217;-71
2021/06/21 07:04:49;;;;;;;3.03;2.45;;;33.00;99.90;;;;;;5071097;28;20239;-70
2021/06/21 07:07:15;;;;;;;8.35;3.13;;;32.90;99.90;;;;;;5088354;28;20160;-71
2021/06/21 07:09:41;;;;;;;2.55;1.83;;;33.50;99.90;;;;;;5088866;28;20266;-70
2021/06/21 07:12:07;;;;;;;4.47;3.03;;;34.30;99.90;;;;;;5089080;28;20155;-70
2021/06/21 07:14:33;;;;;;;3.00;2.15;;;34.30;99.90;;;;;;5088983;28;20205;-69
2021/06/21 07:17:00;;;;;;;3.40;2.47;;;34.60;99.90;;;;;;5088071;28;20160;-70
2021/06/21 07:19:26;;;;;;;2.83;2.63;;;35.60;99.90;;;;;;5088712;28;20163;-70
2021/06/21 07:21:53;;;;;;;2.72;2.50;;;35.80;99.90;;;;;;5070601;28;20199;-70
2021/06/21 07:24:20;;;;;;;2.70;2.50;;;35.80;99.90;;;;;;5088520;28;20148;-70
2021/06/21 07:26:49;;;;;;;3.20;2.90;;;35.80;99.90;;;;;;5088273;28;20155;-70
2021/06/21 07:29:15;;;;;;;5.47;2.85;;;36.30;99.90;;;;;;5088761;28;20160;-70
2021/06/21 07:31:41;;;;;;;3.03;2.40;;;36.00;99.90;;;;;;5088821;28;20168;-70
2021/06/21 07:34:08;;;;;;;2.38;1.92;;;35.60;99.90;;;;;;5088650;28;20163;-70
2021/06/21 07:36:34;;;;;;;4.10;2.92;;;37.30;99.90;;;;;;5088125;28;20156;-70
2021/06/21 07:39:00;;;;;;;3.00;2.72;;;38.50;99.90;;;;;;5088405;28;20156;-70
2021/06/21 07:41:26;;;;;;;3.65;3.35;;;38.80;99.90;;;;;;5088347;28;20783;-71
2021/06/21 07:43:52;;;;;;;1.98;1.88;;;37.70;99.90;;;;;;5066951;28;20295;-70
2021/06/21 07:46:19;;;;;;;3.35;2.85;;;36.90;99.90;;;;;;5068663;28;20156;-70
2021/06/21 07:48:46;;;;;;;15.88;4.90;;;35.80;99.90;;;;;;5068166;28;20247;-70
2021/06/21 07:51:14;;;;;;;5.32;3.08;;;35.90;99.90;;;;;;5068471;28;20711;-70
2021/06/21 07:53:42;;;;;;;4.78;3.55;;;35.70;99.90;;;;;;5068469;28;20188;-70
2021/06/21 07:56:09;;;;;;;2.00;1.90;;;35.90;99.90;;;;;;5070901;28;20499;-70
2021/06/21 07:58:39;;;;;;;2.90;2.22;;;36.80;99.90;;;;;;5071121;28;20160;-70
2021/06/21 08:01:06;;;;;;;2.65;2.40;;;37.40;99.90;;;;;;5070746;28;20204;-71
2021/06/21 08:03:32;;;;;;;4.32;2.47;;;37.30;99.90;;;;;;5072003;28;20164;-71
2021/06/21 08:06:03;;;;;;;2.42;2.17;;;37.30;99.90;;;;;;5072212;28;20698;-71
2021/06/21 08:08:30;;;;;;;4.78;2.38;;;36.70;99.90;;;;;;5071617;28;20156;-70
2021/06/21 08:10:57;;;;;;;4.20;1.77;;;36.50;99.90;;;;;;5071968;28;20270;-70
2021/06/21 08:13:23;;;;;;;2.60;2.17;;;36.70;99.90;;;;;;5071691;28;20179;-70
2021/06/21 08:15:50;;;;;;;3.33;2.17;;;35.70;99.90;;;;;;5072103;28;20164;-71
2021/06/21 08:18:16;;;;;;;3.42;2.83;;;35.30;99.90;;;;;;5071241;28;20156;-71
2021/06/21 08:20:44;;;;;;;3.60;1.88;;;35.10;99.90;;;;;;5071705;28;20680;-70
2021/06/21 08:23:14;;;;;;;3.33;3.03;;;36.00;99.90;;;;;;5070460;28;20181;-71
2021/06/21 08:25:42;;;;;;;15.18;2.20;;;37.10;99.90;;;;;;5070827;28;20673;-71
2021/06/21 08:28:08;;;;;;;9.15;2.85;;;37.40;99.90;;;;;;5070760;28;20156;-71
2021/06/21 08:30:35;;;;;;;3.70;2.95;;;37.30;99.90;;;;;;5070987;28;20156;-71
2021/06/21 08:33:01;;;;;;;2.55;1.85;;;37.10;99.90;;;;;;5070992;28;20203;-70
2021/06/21 08:35:27;;;;;;;2.92;2.42;;;37.60;99.90;;;;;;5071039;28;20192;-71
2021/06/21 08:37:53;;;;;;;4.88;3.60;;;38.70;99.90;;;;;;5071003;28;20170;-71
2021/06/21 08:40:21;;;;;;;3.97;2.72;;;39.40;99.90;;;;;;5071255;28;20735;-71
2021/06/21 08:42:47;;;;;;;5.85;2.20;;;40.10;99.90;;;;;;5077975;28;20272;-71
2021/06/21 08:45:14;;;;;;;3.05;2.13;;;40.20;99.90;;;;;;5091534;28;20191;-71
2021/06/21 08:47:42;;;;;;;8.13;3.85;;;39.30;99.90;;;;;;5073551;28;20178;-70
2021/06/21 08:50:11;;;;;;;2.28;1.70;;;37.60;99.90;;;;;;5091383;28;20262;-70
2021/06/21 08:52:38;;;;;;;3.40;2.47;;;36.80;99.90;;;;;;5073242;28;20179;-70
2021/06/21 08:55:07;;;;;;;2.55;1.77;;;36.90;99.90;;;;;;5091403;28;20194;-70
2021/06/21 08:57:34;;;;;;;6.60;3.35;;;36.80;99.90;;;;;;5073352;28;20628;-70
2021/06/21 09:00:04;;;;;;;11.63;3.05;;;36.80;99.90;;;;;;5091217;28;20159;-71
2021/06/21 09:02:32;;;;;;;7.40;3.03;;;36.80;99.90;;;;;;5090872;28;20187;-71
2021/06/21 09:04:58;;;;;;;3.47;2.30;;;36.90;99.90;;;;;;5091158;28;20187;-71
2021/06/21 09:07:26;;;;;;;4.93;3.08;;;37.60;99.90;;;;;;5090253;28;20155;-70
2021/06/21 09:09:55;;;;;;;3.10;2.80;;;37.90;99.90;;;;;;5093341;28;20175;-70
2021/06/21 09:12:20;;;;;;;3.45;1.48;;;38.20;99.90;;;;;;5099985;28;20186;-70
2021/06/21 09:14:47;;;;;;;3.55;2.72;;;38.70;99.90;;;;;;5091064;28;20175;-70
2021/06/21 09:17:16;;;;;;;4.97;2.85;;;38.20;99.90;;;;;;5090614;28;20261;-70
2021/06/21 09:19:59;;;;;;;7.43;2.65;;;37.80;99.90;;;;;;5090811;28;20176;-70
2021/06/21 09:22:50;;;;;;;3.70;2.33;;;38.50;99.90;;;;;;5089883;28;20210;-71
2021/06/21 09:25:16;;;;;;;5.20;3.35;;;39.00;99.90;;;;;;5090195;28;20202;-71
2021/06/21 09:27:57;;;;;;;4.13;3.45;;;39.20;99.90;;;;;;5089167;28;20157;-71
2021/06/21 09:30:24;;;;;;;4.32;2.63;;;39.30;99.90;;;;;;5090121;28;20174;-71
2021/06/21 09:32:53;;;;;;;15.98;5.03;;;38.40;99.90;;;;;;5090067;28;20152;-71
2021/06/21 09:35:31;;;;;;;5.75;2.25;;;37.40;99.90;;;;;;5089842;28;20254;-70
2021/06/21 09:38:00;;;;;;;7.05;4.57;;;37.70;99.90;;;;;;5090514;28;20155;-70
2021/06/21 09:40:28;;;;;;;4.22;2.92;;;37.80;99.90;;;;;;5090504;28;20607;-70
2021/06/21 09:42:54;;;;;;;9.80;2.58;;;38.40;99.90;;;;;;5090294;28;20217;-71
2021/06/21 09:45:20;;;;;;;15.90;2.30;;;39.60;99.90;;;;;;5072507;28;20236;-71
2021/06/21 09:47:46;;;;;;;5.00;2.35;;;38.90;99.90;;;;;;5090162;28;20218;-71
2021/06/21 09:50:28;;;;;;;7.07;3.30;;;39.30;99.90;;;;;;5090248;28;20180;-71
2021/06/21 09:53:00;;;;;;;2.55;1.80;;;40.10;99.90;;;;;;5090119;28;20197;-71
2021/06/21 09:55:39;;;;;;;2.60;1.63;;;39.50;99.90;;;;;;5089934;28;20254;-71
2021/06/21 09:58:19;;;;;;;3.35;2.58;;;40.00;99.90;;;;;;5090246;28;20177;-71
2021/06/21 10:01:06;;;;;;;1.77;1.67;;;40.80;99.90;;;;;;5090002;28;20278;-71
2021/06/21 10:03:39;;;;;;;11.73;3.17;;;40.50;99.90;;;;;;5089955;28;20156;-71
2021/06/21 10:06:08;;;;;;;2.97;2.25;;;39.50;99.90;;;;;;5071882;28;20201;-71
2021/06/21 10:08:53;;;;;;;8.30;2.45;;;38.80;99.90;;;;;;5089923;28;20156;-71
2021/06/21 10:11:36;;;;;;;5.43;3.08;;;38.60;99.90;;;;;;5089933;28;20166;-71
2021/06/21 10:14:05;;;;;;;5.10;2.38;;;38.50;99.90;;;;;;5072129;28;20162;-71
2021/06/21 10:16:31;;;;;;;7.75;3.13;;;38.50;99.90;;;;;;5071830;28;20622;-71
2021/06/21 10:18:58;;;;;;;3.22;2.85;;;39.00;99.90;;;;;;5071767;28;20203;-71
2021/06/21 10:21:25;;;;;;;5.70;3.17;;;40.20;99.30;;;;;;5070991;28;20191;-70
2021/06/21 10:23:52;;;;;;;28.88;4.13;;;40.60;98.40;;;;;;5089541;28;20202;-71
2021/06/21 10:26:18;;;;;;;5.03;2.08;;;40.30;98.60;;;;;;5089481;28;20213;-72
2021/06/21 10:28:45;;;;;;;3.15;2.22;;;39.60;98.20;;;;;;5089854;28;20156;-71
2021/06/21 10:31:12;;;;;;;2.95;2.72;;;39.50;99.40;;;;;;5089382;28;20238;-71
2021/06/21 10:33:37;;;;;;;2.28;2.08;;;40.20;98.10;;;;;;5089504;28;20190;-71
2021/06/21 10:36:06;;;;;;;8.45;1.92;;;40.90;99.10;;;;;;5089226;28;20199;-71
2021/06/21 10:38:33;;;;;;;4.57;2.38;;;41.30;96.40;;;;;;5089231;28;20219;-71
2021/06/21 10:41:03;;;;;;;7.43;3.92;;;42.20;94.70;;;;;;5089369;28;20254;-71
2021/06/21 10:43:49;;;;;;;8.13;2.75;;;40.50;96.10;;;;;;5089298;28;20207;-71
2021/06/21 10:46:14;;;;;;;6.13;1.95;;;40.30;96.10;;;;;;5071247;28;20195;-71
2021/06/21 10:48:59;;;;;;;3.50;2.47;;;39.30;96.60;;;;;;5089212;28;20235;-71
2021/06/21 10:51:32;;;;;;;15.57;1.90;;;40.50;96.00;;;;;;5087153;28;20171;-71
2021/06/21 10:53:59;;;;;;;7.97;1.88;;;40.10;95.70;;;;;;5071161;28;20167;-70
2021/06/21 10:56:54;;;;;;;1.40;1.30;;;40.40;95.10;;;;;;5088963;28;20195;-70
2021/06/21 10:59:24;;;;;;;2.47;1.98;;;39.50;96.60;;;;;;5089227;28;20166;-70
2021/06/21 11:01:55;;;;;;;17.88;3.22;;;40.40;98.50;;;;;;5088851;28;20191;-71
2021/06/21 11:04:34;;;;;;;11.88;2.03;;;40.80;96.60;;;;;;5089208;28;20609;-71
2021/06/21 11:07:22;;;;;;;6.03;2.53;;;40.40;97.30;;;;;;5089336;28;20201;-70
2021/06/21 11:09:51;;;;;;;1.40;1.30;;;39.90;96.90;;;;;;5091455;28;20203;-70
2021/06/21 11:12:22;;;;;;;3.58;2.30;;;38.90;96.20;;;;;;5098784;28;20201;-70
2021/06/21 11:15:07;;;;;;;16.30;2.13;;;38.10;97.10;;;;;;5108975;28;20158;-71
2021/06/21 11:17:54;;;;;;;4.32;2.08;;;37.80;97.10;;;;;;5109176;28;20146;-70
2021/06/21 11:20:40;;;;;;;1.25;1.15;;;37.40;97.10;;;;;;5104749;28;20175;-71
2021/06/21 11:23:09;;;;;;;3.42;1.52;;;37.00;97.70;;;;;;5088518;28;20147;-70
2021/06/21 11:25:41;;;;;;;7.95;3.42;;;36.50;97.50;;;;;;5088575;28;20179;-71
2021/06/21 11:28:41;;;;;;;13.15;2.63;;;36.70;97.60;;;;;;5088614;28;20621;-71
2021/06/21 11:31:22;;;;;;;3.05;2.50;;;37.10;98.20;;;;;;5091090;28;20194;-70
2021/06/21 11:33:59;;;;;;;6.85;1.98;;;38.40;96.50;;;;;;5093055;28;20162;-70
2021/06/21 11:36:42;;;;;;;6.25;2.35;;;39.20;96.40;;;;;;5092656;28;20194;-70
2021/06/21 11:39:24;;;;;;;8.38;2.40;;;40.40;95.10;;;;;;5092807;28;20163;-72
2021/06/21 11:41:58;;;;;;;9.43;2.83;;;41.80;95.10;;;;;;5092884;28;20159;-71
2021/06/21 11:44:41;;;;;;;7.28;2.20;;;40.40;92.80;;;;;;5092379;28;20223;-71
2021/06/21 11:47:31;;;;;;;5.82;2.10;;;38.90;93.40;;;;;;5092740;28;20167;-70
2021/06/21 11:50:07;;;;;;;11.52;2.10;;;37.90;92.50;;;;;;5071029;28;20172;-70
2021/06/21 11:52:33;;;;;;;15.85;2.75;;;38.20;94.40;;;;;;5057549;28;20253;-70
2021/06/21 11:55:15;;;;;;;7.30;1.92;;;37.70;94.80;;;;;;5072452;28;20239;-70
2021/06/21 11:57:43;;;;;;;1.83;1.67;;;37.90;95.70;;;;;;5072302;28;20170;-70
2021/06/21 12:00:10;;;;;;;16.48;3.03;;;37.50;96.20;;;;;;5072312;28;20212;-70
2021/06/21 12:02:36;;;;;;;7.25;3.05;;;37.30;96.70;;;;;;5072198;28;20156;-70
2021/06/21 12:05:15;;;;;;;6.63;2.35;;;37.40;95.90;;;;;;5072197;28;20200;-70
2021/06/21 12:07:44;;;;;;;9.45;3.10;;;37.20;95.90;;;;;;5055511;28;20215;-73
2021/06/21 12:10:16;;;;;;;5.13;1.92;;;37.10;96.50;;;;;;5072272;28;20180;-72
2021/06/21 12:12:45;;;;;;;2.75;2.10;;;37.40;95.80;;;;;;5070865;28;20196;-72
2021/06/21 12:15:14;;;;;;;3.08;2.78;;;37.30;95.90;;;;;;5071920;28;20253;-72
2021/06/21 12:17:40;;;;;;;3.28;2.45;;;36.70;96.20;;;;;;5071270;28;20179;-72
2021/06/21 12:20:06;;;;;;;1.85;1.55;;;36.10;96.70;;;;;;5089936;28;20203;-72
2021/06/21 12:22:32;;;;;;;8.70;4.25;;;35.80;98.10;;;;;;5090847;28;20185;-71
2021/06/21 12:24:59;;;;;;;17.85;3.95;;;35.70;98.10;;;;;;5073658;28;20252;-71
2021/06/21 12:27:25;;;;;;;6.38;2.55;;;36.00;97.70;;;;;;5091751;28;20179;-71
2021/06/21 12:29:52;;;;;;;4.43;3.00;;;36.00;97.80;;;;;;5067324;28;20168;-71
2021/06/21 12:32:18;;;;;;;12.20;3.80;;;35.80;97.90;;;;;;5082897;28;20248;-71
2021/06/21 12:34:53;;;;;;;12.52;2.75;;;35.70;97.70;;;;;;5074530;28;20173;-71
2021/06/21 12:37:38;;;;;;;3.90;1.38;;;35.10;97.60;;;;;;5070069;28;20170;-71
2021/06/21 12:40:14;;;;;;;2.33;1.98;;;34.50;98.50;;;;;;5069695;28;20211;-71
2021/06/21 12:42:41;;;;;;;3.50;1.38;;;34.20;98.00;;;;;;5069585;28;20218;-71
2021/06/21 12:45:17;;;;;;;4.78;1.13;;;34.20;98.60;;;;;;5071405;28;20255;-71
2021/06/21 12:47:48;;;;;;;10.07;3.22;;;34.10;98.70;;;;;;5051830;28;20203;-71
2021/06/21 12:50:16;;;;;;;1.80;1.65;;;34.20;99.90;;;;;;5092618;28;20174;-72
2021/06/21 12:52:49;;;;;;;3.63;1.75;;;34.30;99.90;;;;;;5103315;28;20195;-72
2021/06/21 12:55:22;;;;;;;1.55;1.45;;;34.20;99.60;;;;;;5090535;28;20176;-72
2021/06/21 12:57:51;;;;;;;5.78;2.60;;;34.20;99.00;;;;;;5091117;28;20190;-72